Time;durP1;ratioP1;P1;durP2;ratioP2;P2;SDS_P1;SDS_P2;PMS_P1;PMS_P2;Temp;Humidity;BMP_temperature;BMP_pressure;BME280_temperature;BME280_humidity;BME280_pressure;Samples;Min_cycle;Max_cycle;Signal;HPM_P1;HPM_P2
2022/02/08 00:00:52;;;;;;;5.53;2.40;;;;;;;;;;5005213;28;20266;-82
2022/02/08 00:03:20;;;;;;;6.72;2.83;;;;;;;;;;5031621;28;20206;-79
2022/02/08 00:05:57;;;;;;;8.30;2.63;;;;;;;;;;5046184;28;20282;-80
2022/02/08 00:08:24;;;;;;;7.22;3.17;;;;;;;;;;5046346;28;20218;-78
2022/02/08 00:10:52;;;;;;;7.57;2.80;;;;;;;;;;5049076;28;20202;-81
2022/02/08 00:13:20;;;;;;;7.65;3.17;;;;;;;;;;5049102;28;20198;-79
2022/02/08 00:15:47;;;;;;;10.32;3.30;;;;;;;;;;5032055;28;20191;-80
2022/02/08 00:18:17;;;;;;;11.10;3.33;;;;;;;;;;5050166;28;20529;-79
2022/02/08 00:20:44;;;;;;;11.63;4.53;;;;;;;;;;5049713;28;20223;-79
2022/02/08 00:23:11;;;;;;;6.82;3.05;;;;;;;;;;5045706;28;20526;-80
2022/02/08 00:25:39;;;;;;;6.15;2.60;;;;;;;;;;5031661;28;20202;-79
2022/02/08 00:28:06;;;;;;;5.60;2.58;;;;;;;;;;5040578;28;20222;-79
2022/02/08 00:30:34;;;;;;;10.43;3.50;;;;;;;;;;5045766;28;20210;-78
2022/02/08 00:33:02;;;;;;;9.10;3.80;;;;;;;;;;5047148;28;20191;-77
2022/02/08 00:35:29;;;;;;;15.63;5.10;;;;;;;;;;5049147;28;20205;-79
2022/02/08 00:37:56;;;;;;;7.90;3.65;;;;;;;;;;5050304;28;20202;-76
2022/02/08 00:40:25;;;;;;;10.43;2.90;;;;;;;;;;5048259;28;20225;-76
2022/02/08 00:42:52;;;;;;;7.15;2.88;;;;;;;;;;5048995;28;20203;-79
2022/02/08 00:45:29;;;;;;;12.20;4.28;;;;;;;;;;5051105;28;20197;-77
2022/02/08 00:48:09;;;;;;;6.97;3.65;;;;;;;;;;5049366;28;20226;-79
2022/02/08 00:50:36;;;;;;;9.82;4.05;;;;;;;;;;5043502;28;20237;-78
2022/02/08 00:53:03;;;;;;;8.55;3.08;;;;;;;;;;5045793;28;20198;-80
2022/02/08 00:55:30;;;;;;;6.03;3.50;;;;;;;;;;5046773;28;20210;-78
2022/02/08 00:57:58;;;;;;;7.70;3.63;;;;;;;;;;5048166;28;20224;-78
2022/02/08 01:00:26;;;;;;;11.65;3.45;;;;;;;;;;5048051;28;20221;-76
2022/02/08 01:02:57;;;;;;;5.85;3.05;;;;;;;;;;5048209;28;20202;-79
2022/02/08 01:05:26;;;;;;;9.52;3.47;;;;;;;;;;5048935;28;20198;-77
2022/02/08 01:07:53;;;;;;;7.82;2.92;;;;;;;;;;5038915;28;20241;-78
2022/02/08 01:10:23;;;;;;;3.65;2.10;;;;;;;;;;5045265;28;20539;-78
2022/02/08 01:12:50;;;;;;;6.47;2.10;;;;;;;;;;5041193;28;20201;-78
2022/02/08 01:15:18;;;;;;;4.88;2.35;;;;;;;;;;5028859;28;20688;-77
2022/02/08 01:17:53;;;;;;;3.90;1.70;;;;;;;;;;5044176;28;20201;-78
2022/02/08 01:20:29;;;;;;;5.55;1.70;;;;;;;;;;5028280;28;20306;-81
2022/02/08 01:22:58;;;;;;;3.95;1.80;;;;;;;;;;5030015;28;20209;-78
2022/02/08 01:25:30;;;;;;;6.63;2.38;;;;;;;;;;5044272;28;20234;-76
2022/02/08 01:28:06;;;;;;;5.82;2.33;;;;;;;;;;5044958;28;20283;-77
2022/02/08 01:30:44;;;;;;;2.75;1.63;;;;;;;;;;5045550;28;20675;-78
2022/02/08 01:33:35;;;;;;;7.05;2.03;;;;;;;;;;5047165;28;20832;-78
2022/02/08 01:36:24;;;;;;;4.30;2.13;;;;;;;;;;5049519;28;20216;-80
2022/02/08 01:38:58;;;;;;;7.43;2.35;;;;;;;;;;5044922;28;20195;-79
2022/02/08 01:41:38;;;;;;;3.05;1.58;;;;;;;;;;5034254;28;20218;-76
2022/02/08 01:44:21;;;;;;;4.60;1.92;;;;;;;;;;5041658;28;20201;-79
2022/02/08 01:47:01;;;;;;;5.97;2.10;;;;;;;;;;5044531;28;20223;-79
2022/02/08 01:49:34;;;;;;;4.55;1.63;;;;;;;;;;5047460;28;20314;-76
2022/02/08 01:52:01;;;;;;;4.05;1.52;;;;;;;;;;5028208;28;20227;-77
2022/02/08 01:54:30;;;;;;;3.38;1.70;;;;;;;;;;5027334;28;20866;-77
2022/02/08 01:56:57;;;;;;;4.05;1.70;;;;;;;;;;5029153;28;20203;-78
2022/02/08 01:59:26;;;;;;;3.47;1.50;;;;;;;;;;5033190;28;20203;-77
2022/02/08 02:01:53;;;;;;;2.40;1.60;;;;;;;;;;5043544;28;20187;-76
2022/02/08 02:04:20;;;;;;;3.92;1.90;;;;;;;;;;5044497;28;20197;-80
2022/02/08 02:06:47;;;;;;;4.72;1.75;;;;;;;;;;5046316;28;20198;-79
2022/02/08 02:09:15;;;;;;;4.53;1.55;;;;;;;;;;5046040;28;20229;-78
2022/02/08 02:11:43;;;;;;;2.40;1.35;;;;;;;;;;5048730;28;20652;-79
2022/02/08 02:14:11;;;;;;;4.07;1.85;;;;;;;;;;5041068;28;20287;-80
2022/02/08 02:16:51;;;;;;;3.58;1.92;;;;;;;;;;5037847;28;20201;-78
2022/02/08 02:19:19;;;;;;;11.27;3.33;;;;;;;;;;5049369;28;20205;-79
2022/02/08 02:21:46;;;;;;;6.15;2.58;;;;;;;;;;5046925;28;20582;-76
2022/02/08 02:24:15;;;;;;;6.30;2.30;;;;;;;;;;5037036;28;20214;-79
2022/02/08 02:26:42;;;;;;;3.70;1.98;;;;;;;;;;5031976;28;20222;-77
2022/02/08 02:29:09;;;;;;;6.55;1.65;;;;;;;;;;5030682;28;20742;-79
2022/02/08 02:31:36;;;;;;;2.85;1.77;;;;;;;;;;5031640;28;20246;-76
2022/02/08 02:34:04;;;;;;;7.15;1.92;;;;;;;;;;5031689;28;20198;-78
2022/02/08 02:36:31;;;;;;;8.23;3.13;;;;;;;;;;5052308;28;20769;-78
2022/02/08 02:38:58;;;;;;;6.65;2.08;;;;;;;;;;5042326;28;20704;-79
2022/02/08 02:41:27;;;;;;;5.13;1.70;;;;;;;;;;5037967;28;20564;-77
2022/02/08 02:43:54;;;;;;;8.32;1.83;;;;;;;;;;5047146;28;20202;-76
2022/02/08 02:46:21;;;;;;;4.75;2.13;;;;;;;;;;5048656;28;20708;-79
2022/02/08 02:48:49;;;;;;;9.18;2.85;;;;;;;;;;5050628;28;20253;-77
2022/02/08 02:51:16;;;;;;;5.93;2.03;;;;;;;;;;5051789;28;20696;-77
2022/02/08 02:53:43;;;;;;;6.88;2.35;;;;;;;;;;5048113;28;20254;-80
2022/02/08 02:56:10;;;;;;;3.30;1.70;;;;;;;;;;5052166;28;20194;-78
2022/02/08 02:58:39;;;;;;;2.97;1.85;;;;;;;;;;5038410;28;20664;-80
2022/02/08 03:01:19;;;;;;;6.88;2.00;;;;;;;;;;5040278;28;20611;-76
2022/02/08 03:03:56;;;;;;;9.65;2.22;;;;;;;;;;5036555;28;20277;-76
2022/02/08 03:19:49;;;;;;;4.63;1.95;;;;;;;;;;5031086;28;20263;-78
2022/02/08 03:22:17;;;;;;;3.55;2.00;;;;;;;;;;5040158;28;20560;-79
2022/02/08 03:24:44;;;;;;;4.80;1.92;;;;;;;;;;5047194;28;20195;-78
2022/02/08 03:27:11;;;;;;;7.00;2.03;;;;;;;;;;5048662;28;20191;-77
2022/02/08 03:29:39;;;;;;;4.65;2.35;;;;;;;;;;5049659;28;20227;-78
2022/02/08 03:32:07;;;;;;;4.20;1.95;;;;;;;;;;5051289;28;20206;-80
2022/02/08 03:34:34;;;;;;;3.85;1.67;;;;;;;;;;5038100;28;20645;-79
2022/02/08 03:37:01;;;;;;;3.55;2.03;;;;;;;;;;5030706;28;20191;-77
2022/02/08 03:39:35;;;;;;;4.57;1.80;;;;;;;;;;5045443;28;20553;-79
2022/02/08 03:42:08;;;;;;;2.80;1.55;;;;;;;;;;5046322;28;20187;-80
2022/02/08 03:44:36;;;;;;;3.45;1.60;;;;;;;;;;5049340;28;20818;-78
2022/02/08 03:47:07;;;;;;;5.78;1.50;;;;;;;;;;5048524;28;20191;-78
2022/02/08 03:49:34;;;;;;;2.83;1.60;;;;;;;;;;5031182;28;20314;-78
2022/02/08 03:52:05;;;;;;;2.97;1.60;;;;;;;;;;5030612;28;20641;-79
2022/02/08 03:54:32;;;;;;;2.10;1.50;;;;;;;;;;5032590;28;20273;-76
2022/02/08 03:57:00;;;;;;;2.50;1.50;;;;;;;;;;5042234;28;20209;-77
2022/02/08 03:59:27;;;;;;;2.67;2.03;;;;;;;;;;5046579;28;20642;-77
2022/02/08 04:02:13;;;;;;;2.17;1.50;;;;;;;;;;5031688;28;20196;-77
2022/02/08 04:04:51;;;;;;;2.45;1.70;;;;;;;;;;5047221;28;20195;-76
2022/02/08 04:07:22;;;;;;;4.85;1.95;;;;;;;;;;5049852;28;20194;-74
2022/02/08 04:09:52;;;;;;;2.90;2.03;;;;;;;;;;5048907;28;20234;-77
2022/02/08 04:12:25;;;;;;;2.65;1.60;;;;;;;;;;5044231;28;20717;-78
2022/02/08 04:15:03;;;;;;;4.00;1.92;;;;;;;;;;5045206;28;20199;-77
2022/02/08 04:17:39;;;;;;;3.40;1.80;;;;;;;;;;5049008;28;20341;-76
2022/02/08 04:33:58;;;;;;;3.07;2.27;;;;;;;;;;5044522;28;20692;-82
2022/02/08 04:36:56;;;;;;;3.40;2.30;;;;;;;;;;5040268;28;20454;-81
2022/02/08 04:39:39;;;;;;;3.57;1.97;;;;;;;;;;5041935;28;20441;-77
2022/02/08 04:42:14;;;;;;;6.63;2.43;;;;;;;;;;5029351;28;20839;-81
2022/02/08 04:44:46;;;;;;;3.50;2.50;;;;;;;;;;5029177;28;20473;-80
2022/02/08 04:47:18;;;;;;;3.15;2.00;;;;;;;;;;5047778;28;20457;-79
2022/02/08 04:49:45;;;;;;;2.70;2.20;;;;;;;;;;5051203;28;20258;-81
2022/02/08 04:52:16;;;;;;;2.03;1.80;;;;;;;;;;5037279;28;20449;-78
2022/02/08 04:54:50;;;;;;;2.00;1.60;;;;;;;;;;5045885;28;20430;-78
2022/02/08 04:57:23;;;;;;;2.83;2.10;;;;;;;;;;5046471;28;20475;-79
2022/02/08 05:35:20;;;;;;;8.60;5.27;;;;;;;;;;5042187;28;20541;-79
2022/02/08 05:43:15;;;;;;;9.80;4.73;;;;;;;;;;5046338;28;20850;-80
2022/02/08 05:46:05;;;;;;;10.18;5.13;;;;;;;;;;5041931;28;20533;-77
2022/02/08 05:48:34;;;;;;;7.30;4.07;;;;;;;;;;5048298;28;20256;-78
2022/02/08 05:51:05;;;;;;;11.17;4.63;;;;;;;;;;5050779;28;20487;-76
2022/02/08 05:53:42;;;;;;;8.90;4.73;;;;;;;;;;5047569;28;20528;-78
2022/02/08 05:56:10;;;;;;;8.77;4.40;;;;;;;;;;5051219;28;20491;-81
2022/02/08 05:58:40;;;;;;;6.77;4.50;;;;;;;;;;5031728;28;20461;-80
2022/02/08 06:01:07;;;;;;;8.70;5.40;;;;;;;;;;5031990;28;20527;-77
2022/02/08 06:03:35;;;;;;;8.53;4.40;;;;;;;;;;5032355;28;20951;-77
2022/02/08 06:06:02;;;;;;;7.70;5.23;;;;;;;;;;5031669;28;20441;-80
2022/02/08 06:08:29;;;;;;;7.07;4.73;;;;;;;;;;5043177;28;20964;-76
2022/02/08 06:11:01;;;;;;;7.77;4.70;;;;;;;;;;5047935;28;20460;-78
2022/02/08 06:13:30;;;;;;;6.13;4.33;;;;;;;;;;5051115;28;20468;-76
2022/02/08 06:16:02;;;;;;;8.57;5.33;;;;;;;;;;5051169;28;20569;-77
2022/02/08 06:18:29;;;;;;;11.00;5.40;;;;;;;;;;5050914;28;20767;-82
2022/02/08 06:20:59;;;;;;;8.50;5.10;;;;;;;;;;5037772;28;20550;-78
2022/02/08 06:23:26;;;;;;;6.07;4.70;;;;;;;;;;5036550;28;20788;-80
2022/02/08 06:25:53;;;;;;;7.15;4.80;;;;;;;;;;5048082;28;20445;-81
2022/02/08 06:28:22;;;;;;;10.13;5.10;;;;;;;;;;5048756;28;20557;-79
2022/02/08 06:30:51;;;;;;;10.68;5.82;;;;;;;;;;5050733;28;20258;-82
2022/02/08 06:33:19;;;;;;;5.20;4.35;;;;;;;;;;5050641;28;20679;-76
2022/02/08 06:35:46;;;;;;;7.47;4.60;;;;;;;;;;5046925;28;20187;-76
2022/02/08 06:38:15;;;;;;;8.57;4.33;;;;;;;;;;5042974;28;20464;-76
2022/02/08 06:40:45;;;;;;;5.83;4.67;;;;;;;;;;5051841;28;21251;-79
2022/02/08 06:43:12;;;;;;;8.65;5.00;;;;;;;;;;5053102;28;20465;-79
2022/02/08 06:45:40;;;;;;;10.38;5.32;;;;;;;;;;5050124;28;20690;-79
2022/02/08 06:48:10;;;;;;;7.63;4.68;;;;;;;;;;5046433;28;20195;-78
2022/02/08 06:50:37;;;;;;;8.25;4.32;;;;;;;;;;5047833;28;20295;-76
2022/02/08 06:53:04;;;;;;;5.35;4.10;;;;;;;;;;5048788;28;20190;-81
2022/02/08 06:55:32;;;;;;;6.03;3.67;;;;;;;;;;5050940;28;20662;-81
2022/02/08 06:58:03;;;;;;;6.47;3.23;;;;;;;;;;5050623;28;20453;-79
2022/02/08 07:00:34;;;;;;;4.73;3.33;;;;;;;;;;5046672;28;20472;-82
2022/02/08 07:03:03;;;;;;;5.00;3.30;;;;;;;;;;5051693;28;20789;-75
2022/02/08 07:05:32;;;;;;;4.50;3.67;;;;;;;;;;5052457;28;20260;-77
2022/02/08 07:07:59;;;;;;;6.03;3.60;;;;;;;;;;5050736;28;20853;-74
2022/02/08 07:10:28;;;;;;;6.97;4.30;;;;;;;;;;5044884;28;20230;-75
2022/02/08 07:12:55;;;;;;;6.17;4.70;;;;;;;;;;5045191;28;20536;-76
2022/02/08 07:15:22;;;;;;;11.63;5.53;;;;;;;;;;5051152;28;20438;-77
2022/02/08 07:17:50;;;;;;;6.82;5.03;;;;;;;;;;5048808;28;20215;-83
2022/02/08 07:20:17;;;;;;;6.82;4.90;;;;;;;;;;5049044;28;20219;-81
2022/02/08 07:22:46;;;;;;;8.70;5.30;;;;;;;;;;5040784;28;20669;-79
2022/02/08 07:25:13;;;;;;;6.60;4.70;;;;;;;;;;5053597;28;20455;-78
2022/02/08 07:27:40;;;;;;;8.57;4.90;;;;;;;;;;5055197;28;20195;-77
2022/02/08 07:30:10;;;;;;;7.73;5.60;;;;;;;;;;5045781;28;20478;-76
2022/02/08 07:32:38;;;;;;;7.40;4.83;;;;;;;;;;5047277;28;20434;-79
2022/02/08 07:35:19;;;;;;;7.20;5.03;;;;;;;;;;5047960;28;21094;-81
2022/02/08 07:37:51;;;;;;;5.60;4.10;;;;;;;;;;5049021;28;20599;-78
2022/02/08 07:40:29;;;;;;;5.17;3.90;;;;;;;;;;5050240;28;20999;-84
2022/02/08 07:42:57;;;;;;;7.00;3.93;;;;;;;;;;5046716;28;20461;-77
2022/02/08 07:45:24;;;;;;;5.07;4.10;;;;;;;;;;5045757;28;20456;-76
2022/02/08 07:47:52;;;;;;;9.70;5.77;;;;;;;;;;5046048;28;20445;-80
2022/02/08 07:50:20;;;;;;;8.93;4.93;;;;;;;;;;5046807;28;21009;-78
2022/02/08 07:52:50;;;;;;;6.88;4.40;;;;;;;;;;5048650;28;20528;-78
2022/02/08 07:55:17;;;;;;;8.40;5.03;;;;;;;;;;5047888;28;20191;-78
2022/02/08 07:57:44;;;;;;;11.63;5.83;;;;;;;;;;5048284;28;20433;-79
2022/02/08 08:00:12;;;;;;;11.43;7.33;;;;;;;;;;5035633;28;20461;-77
2022/02/08 08:02:40;;;;;;;7.67;5.57;;;;;;;;;;5047399;28;20465;-79
2022/02/08 08:05:08;;;;;;;6.17;4.73;;;;;;;;;;5045104;28;20433;-78
2022/02/08 08:07:35;;;;;;;5.03;3.90;;;;;;;;;;5046480;28;20926;-77
2022/02/08 08:10:06;;;;;;;8.07;5.37;;;;;;;;;;5043885;28;20511;-76
2022/02/08 08:12:35;;;;;;;6.73;5.00;;;;;;;;;;5048065;28;20441;-80
2022/02/08 08:15:10;;;;;;;4.83;4.00;;;;;;;;;;5048793;28;20516;-80
2022/02/08 08:17:53;;;;;;;5.63;5.13;;;;;;;;;;5048470;28;20444;-79
2022/02/08 08:20:20;;;;;;;4.03;3.43;;;;;;;;;;5052349;28;20815;-78
2022/02/08 08:22:47;;;;;;;7.20;4.10;;;;;;;;;;5046334;28;20436;-79
2022/02/08 08:25:16;;;;;;;6.10;4.67;;;;;;;;;;5046459;28;20842;-75
2022/02/08 08:27:43;;;;;;;7.30;4.10;;;;;;;;;;5047931;28;20448;-78
2022/02/08 08:30:11;;;;;;;3.83;3.30;;;;;;;;;;5049790;28;20497;-82
2022/02/08 08:32:39;;;;;;;4.20;3.57;;;;;;;;;;5048727;28;20441;-77
2022/02/08 08:35:07;;;;;;;6.47;3.60;;;;;;;;;;5048844;28;20822;-81
2022/02/08 08:37:39;;;;;;;3.73;3.17;;;;;;;;;;5049256;28;20529;-81
2022/02/08 08:40:16;;;;;;;6.93;3.60;;;;;;;;;;5045115;28;20465;-80
2022/02/08 08:42:53;;;;;;;4.87;3.07;;;;;;;;;;5043280;28;20885;-80
2022/02/08 08:51:00;;;;;;;3.40;2.83;;;;;;;;;;5028978;28;20497;-80
2022/02/08 08:53:27;;;;;;;3.20;2.90;;;;;;;;;;5032758;28;20484;-81
2022/02/08 08:55:55;;;;;;;5.93;3.93;;;;;;;;;;5050325;28;20483;-77
2022/02/08 08:58:23;;;;;;;4.30;3.00;;;;;;;;;;5046524;28;20456;-79
2022/02/08 09:00:50;;;;;;;5.77;3.50;;;;;;;;;;5047896;28;20457;-80
2022/02/08 09:03:17;;;;;;;8.20;4.03;;;;;;;;;;5043586;28;20430;-81
2022/02/08 09:05:45;;;;;;;7.20;4.40;;;;;;;;;;5045542;28;20444;-80
2022/02/08 09:08:12;;;;;;;8.97;4.00;;;;;;;;;;5048526;28;20451;-80
2022/02/08 09:10:48;;;;;;;6.37;3.43;;;;;;;;;;5028154;28;20497;-79
2022/02/08 09:13:24;;;;;;;6.53;3.50;;;;;;;;;;5029105;28;20949;-81
2022/02/08 09:16:00;;;;;;;7.43;3.23;;;;;;;;;;5036433;28;20560;-79
2022/02/08 09:26:49;;;;;;;5.43;3.73;;;;;;;;;;5032676;28;20438;-82
2022/02/08 09:29:23;;;;;;;6.00;3.57;;;;;;;;;;5031513;28;20857;-78
2022/02/08 09:31:59;;;;;;;5.20;3.67;;;;;;;;;;5033279;28;20865;-81
2022/02/08 09:34:29;;;;;;;5.63;3.93;;;;;;;;;;5052114;28;20457;-82
2022/02/08 09:36:56;;;;;;;8.57;4.10;;;;;;;;;;5054273;28;20437;-81
2022/02/08 09:39:23;;;;;;;6.23;4.07;;;;;;;;;;5052459;28;20918;-82
2022/02/08 09:41:53;;;;;;;4.63;2.60;;;;;;;;;;5047705;28;20426;-82
2022/02/08 09:44:25;;;;;;;7.90;4.40;;;;;;;;;;5050254;28;20444;-79
2022/02/08 09:46:54;;;;;;;9.53;3.30;;;;;;;;;;5036553;28;20492;-78
2022/02/08 09:49:22;;;;;;;8.10;3.27;;;;;;;;;;5033681;28;20839;-79
2022/02/08 09:51:51;;;;;;;4.30;3.50;;;;;;;;;;5035135;28;20493;-75
2022/02/08 09:54:19;;;;;;;5.57;2.80;;;;;;;;;;5032738;28;20446;-75
2022/02/08 09:56:47;;;;;;;8.37;2.90;;;;;;;;;;5044245;28;20489;-76
2022/02/08 09:59:14;;;;;;;4.70;3.10;;;;;;;;;;5037430;28;20441;-76
2022/02/08 10:01:52;;;;;;;6.07;3.30;;;;;;;;;;5036171;28;20441;-78
2022/02/08 10:04:20;;;;;;;7.07;3.10;;;;;;;;;;5046603;28;20460;-76
2022/02/08 10:06:47;;;;;;;3.50;2.60;;;;;;;;;;5047627;28;20503;-77
2022/02/08 10:09:15;;;;;;;6.73;3.00;;;;;;;;;;5046422;28;20456;-74
2022/02/08 10:11:45;;;;;;;4.00;2.80;;;;;;;;;;5049701;28;20484;-76
2022/02/08 10:14:20;;;;;;;4.40;3.10;;;;;;;;;;5051975;28;20437;-75
2022/02/08 10:22:29;;;;;;;5.80;3.10;;;;;;;;;;5041491;28;20461;-76
2022/02/08 10:25:00;;;;;;;4.93;3.60;;;;;;;;;;5048543;28;20445;-77
2022/02/08 10:27:31;;;;;;;3.23;2.80;;;;;;;;;;5049289;28;20437;-76
2022/02/08 10:38:14;;;;;;;4.27;2.60;;;;;;;;;;5047096;28;20934;-80
2022/02/08 10:40:42;;;;;;;5.17;2.37;;;;;;;;;;5047799;28;20445;-80
2022/02/08 10:43:11;;;;;;;4.87;2.40;;;;;;;;;;5049081;28;20981;-80
2022/02/08 10:45:39;;;;;;;3.60;2.03;;;;;;;;;;5035225;28;20453;-77
2022/02/08 10:48:08;;;;;;;3.27;2.07;;;;;;;;;;5031761;28;20446;-79
2022/02/08 10:50:39;;;;;;;4.30;2.43;;;;;;;;;;5031078;28;20524;-78
2022/02/08 10:53:08;;;;;;;3.73;2.00;;;;;;;;;;5029428;28;20438;-79
2022/02/08 10:55:43;;;;;;;2.53;2.00;;;;;;;;;;5048696;28;20457;-78
2022/02/08 10:58:18;;;;;;;2.50;2.00;;;;;;;;;;5045922;28;20475;-78
2022/02/08 11:00:50;;;;;;;3.97;2.27;;;;;;;;;;5049948;28;20444;-80
2022/02/08 11:03:23;;;;;;;2.17;1.97;;;;;;;;;;5049604;28;20993;-77
2022/02/08 11:06:08;;;;;;;3.50;1.70;;;;;;;;;;5049298;28;20483;-77
2022/02/08 11:09:14;;;;;;;1.83;1.60;;;;;;;;;;5037164;28;20458;-76
2022/02/08 11:12:01;;;;;;;3.63;1.87;;;;;;;;;;5036474;28;20491;-78
2022/02/08 11:14:37;;;;;;;2.30;1.50;;;;;;;;;;5043485;28;20476;-78
2022/02/08 11:19:56;;;;;;;2.70;2.03;;;;;;;;;;5029801;28;20461;-75
2022/02/08 11:22:35;;;;;;;2.43;2.07;;;;;;;;;;5030040;28;20551;-77
2022/02/08 11:25:07;;;;;;;3.50;2.10;;;;;;;;;;5032007;28;20450;-79
2022/02/08 11:27:37;;;;;;;4.13;2.20;;;;;;;;;;5031253;28;20457;-76
2022/02/08 11:30:10;;;;;;;4.73;2.20;;;;;;;;;;5041911;28;20500;-77
2022/02/08 11:32:52;;;;;;;4.30;2.20;;;;;;;;;;5051985;28;20437;-80
2022/02/08 11:46:28;;;;;;;3.00;2.30;;;;;;;;;;5050477;28;20535;-78
2022/02/08 11:49:27;;;;;;;5.40;2.00;;;;;;;;;;5042838;28;20191;-78
2022/02/08 11:52:18;;;;;;;3.23;2.30;;;;;;;;;;5029378;28;20486;-76
2022/02/08 11:55:10;;;;;;;3.87;2.03;;;;;;;;;;5045356;28;20452;-78
2022/02/08 11:58:05;;;;;;;4.40;2.30;;;;;;;;;;5047417;28;20447;-77
2022/02/08 12:00:37;;;;;;;3.60;2.30;;;;;;;;;;5029223;28;20504;-79
2022/02/08 12:03:40;;;;;;;7.57;4.43;;;;;;;;;;5029194;28;21046;-76
2022/02/08 12:06:31;;;;;;;9.10;4.37;;;;;;;;;;5043153;28;20580;-77
2022/02/08 12:09:07;;;;;;;6.83;2.80;;;;;;;;;;5034033;28;20461;-79
2022/02/08 12:12:00;;;;;;;11.00;5.57;;;;;;;;;;5046384;28;20576;-78
2022/02/08 12:31:14;;;;;;;8.93;3.70;;;;;;;;;;5043246;28;20480;-76
2022/02/08 12:33:55;;;;;;;13.13;6.07;;;;;;;;;;5040690;28;20438;-76
2022/02/08 12:39:33;;;;;;;12.53;5.40;;;;;;;;;;5004921;28;20645;-75
2022/02/08 12:50:46;;;;;;;6.77;3.53;;;;;;;;;;5006514;28;21066;-78
2022/02/08 12:56:08;;;;;;;5.77;3.23;;;;;;;;;;5041883;28;21044;-79
2022/02/08 12:58:54;;;;;;;10.07;3.90;;;;;;;;;;5029742;28;20532;-78
2022/02/08 13:01:53;;;;;;;9.23;4.23;;;;;;;;;;5029376;28;20470;-76
2022/02/08 13:04:33;;;;;;;8.27;4.90;;;;;;;;;;5046200;28;20966;-77
2022/02/08 14:06:32;;;;;;;6.80;2.47;;;;;;;;;;5096743;28;20818;-77
2022/02/08 14:09:16;;;;;;;4.97;2.00;;;;;;;;;;5123085;28;20429;-77
2022/02/08 14:12:04;;;;;;;3.33;1.60;;;;;;;;;;5125335;28;20454;-78
2022/02/08 14:14:38;;;;;;;3.87;2.27;;;;;;;;;;5126611;28;20502;-76
2022/02/08 14:19:51;;;;;;;2.83;2.27;;;;;;;;;;5104184;27;20489;-78
2022/02/08 14:22:32;;;;;;;6.60;3.30;;;;;;;;;;5112929;28;20437;-77
2022/02/08 14:25:18;;;;;;;6.70;2.80;;;;;;;;;;5117203;28;20469;-78
2022/02/08 14:30:31;;;;;;;6.90;2.80;;;;;;;;;;5120135;27;20450;-78
2022/02/08 14:33:10;;;;;;;6.30;2.70;;;;;;;;;;5112187;28;20523;-78
2022/02/08 14:35:56;;;;;;;4.20;2.27;;;;;;;;;;5111172;28;20434;-79
2022/02/08 15:08:07;;;;;;;2.80;1.60;;;;;;;;;;5080582;28;20450;-79
2022/02/08 15:10:40;;;;;;;7.33;2.03;;;;;;;;;;5075237;28;20490;-77
2022/02/08 15:13:10;;;;;;;6.10;2.20;;;;;;;;;;5102021;28;20959;-78
2022/02/08 15:15:53;;;;;;;3.80;2.00;;;;;;;;;;5095850;28;20546;-77
2022/02/08 15:18:20;;;;;;;3.30;2.00;;;;;;;;;;5092838;28;20814;-77
2022/02/08 15:20:47;;;;;;;3.60;1.90;;;;;;;;;;5097175;28;20485;-77
2022/02/08 15:23:18;;;;;;;4.17;2.80;;;;;;;;;;5100276;28;20426;-77
2022/02/08 15:25:45;;;;;;;2.07;1.60;;;;;;;;;;5091141;28;20941;-78
2022/02/08 15:28:14;;;;;;;2.00;1.80;;;;;;;;;;5091211;28;20439;-77
2022/02/08 15:30:43;;;;;;;4.23;1.60;;;;;;;;;;5091027;28;20467;-78
2022/02/08 15:33:11;;;;;;;1.93;1.60;;;;;;;;;;5090653;28;20451;-77
2022/02/08 15:35:39;;;;;;;2.07;1.67;;;;;;;;;;5104277;28;20788;-79
2022/02/08 15:38:06;;;;;;;3.33;1.80;;;;;;;;;;5113635;28;20438;-78
2022/02/08 15:40:34;;;;;;;3.00;1.90;;;;;;;;;;5102887;28;20482;-77
2022/02/08 15:43:01;;;;;;;3.53;1.87;;;;;;;;;;5096523;28;20431;-78
2022/02/08 15:45:33;;;;;;;3.10;2.00;;;;;;;;;;5100915;28;20813;-78
2022/02/08 15:48:01;;;;;;;1.83;1.67;;;;;;;;;;5090244;28;20454;-77
2022/02/08 15:50:35;;;;;;;3.40;1.60;;;;;;;;;;5089797;28;20470;-79
2022/02/08 15:53:12;;;;;;;2.83;1.87;;;;;;;;;;5090091;28;20427;-78
2022/02/08 15:55:49;;;;;;;3.40;2.10;;;;;;;;;;5090077;28;21006;-78
2022/02/08 15:58:27;;;;;;;3.87;1.80;;;;;;;;;;5095485;28;20451;-79
2022/02/08 16:09:05;;;;;;;4.90;2.00;;;;;;;;;;5100160;28;20454;-79
2022/02/08 16:11:45;;;;;;;2.60;2.00;;;;;;;;;;5110979;28;20481;-78
2022/02/08 16:14:20;;;;;;;2.47;1.70;;;;;;;;;;5106798;28;20456;-77
2022/02/08 16:17:00;;;;;;;2.33;1.73;;;;;;;;;;5093147;28;20449;-78
2022/02/08 16:19:41;;;;;;;3.63;2.00;;;;;;;;;;5101203;28;20543;-78
2022/02/08 16:22:27;;;;;;;3.20;2.07;;;;;;;;;;5109901;28;20659;-78
2022/02/08 16:24:59;;;;;;;3.30;2.13;;;;;;;;;;5108094;28;20966;-77
2022/02/08 16:27:39;;;;;;;3.03;2.47;;;;;;;;;;5110369;28;20960;-78
2022/02/08 16:30:47;;;;;;;4.13;2.60;;;;;;;;;;5109293;28;20454;-77
2022/02/08 16:33:30;;;;;;;3.40;2.20;;;;;;;;;;5084838;28;20928;-77
2022/02/08 16:47:17;;;;;;;3.23;2.00;;;;;;;;;;5087526;28;20462;-76
2022/02/08 16:49:59;;;;;;;3.07;2.20;;;;;;;;;;5083941;28;20467;-78
2022/02/08 16:55:42;;;;;;;3.30;2.70;;;;;;;;;;5125122;27;20519;-78
2022/02/08 16:58:23;;;;;;;4.93;2.53;;;;;;;;;;5126336;28;20616;-78
2022/02/08 17:00:54;;;;;;;3.60;2.57;;;;;;;;;;5125444;28;20497;-77
2022/02/08 17:03:26;;;;;;;4.77;3.10;;;;;;;;;;5127928;27;20433;-77
2022/02/08 17:05:53;;;;;;;3.07;2.33;;;;;;;;;;5121949;27;20461;-75
2022/02/08 17:08:22;;;;;;;3.03;2.20;;;;;;;;;;5105520;28;20450;-76
2022/02/08 17:10:57;;;;;;;2.67;2.00;;;;;;;;;;5128833;27;20552;-78
2022/02/08 17:13:39;;;;;;;2.90;1.80;;;;;;;;;;5124706;27;20563;-77
2022/02/08 17:16:15;;;;;;;2.07;1.80;;;;;;;;;;5122087;27;20441;-77
2022/02/08 17:35:25;;;;;;;2.50;1.93;;;;;;;;;;5122605;27;20499;-77
2022/02/08 17:45:55;;;;;;;3.03;2.27;;;;;;;;;;5119113;27;20454;-76
2022/02/08 17:48:23;;;;;;;3.93;2.60;;;;;;;;;;5107224;28;20477;-77
2022/02/08 17:50:50;;;;;;;5.53;2.23;;;;;;;;;;5106837;28;20485;-76
2022/02/08 17:53:17;;;;;;;3.20;2.40;;;;;;;;;;5122001;27;20485;-76
2022/02/08 17:55:44;;;;;;;3.87;2.63;;;;;;;;;;5122801;27;20432;-76
2022/02/08 17:58:15;;;;;;;3.93;2.77;;;;;;;;;;5124698;27;20457;-78
2022/02/08 18:00:42;;;;;;;5.60;3.07;;;;;;;;;;5124455;27;21003;-79
2022/02/08 18:03:12;;;;;;;4.97;3.37;;;;;;;;;;5124985;27;20458;-78
2022/02/08 18:05:40;;;;;;;5.77;3.20;;;;;;;;;;5118462;27;20438;-79
2022/02/08 18:08:09;;;;;;;4.80;2.80;;;;;;;;;;5107007;28;20447;-78
2022/02/08 18:10:37;;;;;;;3.80;2.80;;;;;;;;;;5093886;28;20451;-80
2022/02/08 18:13:09;;;;;;;3.63;2.60;;;;;;;;;;5092867;28;20955;-77
2022/02/08 18:15:38;;;;;;;2.63;2.43;;;;;;;;;;5107022;28;20429;-77
2022/02/08 18:18:16;;;;;;;3.00;2.37;;;;;;;;;;5109014;28;20446;-78
2022/02/08 18:20:48;;;;;;;3.80;2.50;;;;;;;;;;5106880;28;20881;-80
2022/02/08 18:23:35;;;;;;;3.70;2.20;;;;;;;;;;5111925;28;20451;-80
2022/02/08 18:28:54;;;;;;;2.47;2.07;;;;;;;;;;5104184;28;20450;-78
2022/02/08 18:55:58;;;;;;;3.50;3.20;;;;;;;;;;5109662;28;20467;-78
2022/02/08 19:04:24;;;;;;;4.73;3.77;;;;;;;;;;5110355;28;20915;-77
2022/02/08 19:07:06;;;;;;;6.80;3.97;;;;;;;;;;5108091;28;20462;-77
2022/02/08 19:09:45;;;;;;;5.67;3.87;;;;;;;;;;5107414;28;20464;-78
2022/02/08 19:12:17;;;;;;;4.77;3.50;;;;;;;;;;5110219;28;20435;-78
2022/02/08 19:20:13;;;;;;;6.90;4.10;;;;;;;;;;5110714;28;20803;-77
2022/02/08 19:22:40;;;;;;;4.90;3.80;;;;;;;;;;5099024;28;20998;-79
2022/02/08 19:25:08;;;;;;;6.47;3.30;;;;;;;;;;5100789;28;20442;-78
2022/02/08 19:27:37;;;;;;;3.60;2.97;;;;;;;;;;5104918;28;20427;-78
2022/02/08 19:30:06;;;;;;;3.20;2.57;;;;;;;;;;5108466;28;20991;-78
2022/02/08 19:32:33;;;;;;;2.90;2.53;;;;;;;;;;5108635;28;20481;-77
2022/02/08 19:35:04;;;;;;;3.93;2.97;;;;;;;;;;5104866;28;20478;-80
2022/02/08 19:37:32;;;;;;;3.50;2.70;;;;;;;;;;5110607;28;20450;-78
2022/02/08 19:39:59;;;;;;;5.20;2.60;;;;;;;;;;5108747;28;20458;-77
2022/02/08 19:42:26;;;;;;;4.70;2.67;;;;;;;;;;5101622;28;20461;-78
2022/02/08 19:44:56;;;;;;;4.23;2.70;;;;;;;;;;5104245;28;20459;-77
2022/02/08 19:47:24;;;;;;;3.10;2.50;;;;;;;;;;5108311;28;20455;-76
2022/02/08 19:49:52;;;;;;;4.87;2.10;;;;;;;;;;5107025;28;20481;-76
2022/02/08 19:52:20;;;;;;;8.07;2.83;;;;;;;;;;5111167;28;20465;-77
2022/02/08 19:55:06;;;;;;;4.00;2.70;;;;;;;;;;5109218;28;20535;-76
2022/02/08 19:57:34;;;;;;;4.47;2.30;;;;;;;;;;5101492;28;20465;-77
2022/02/08 20:00:06;;;;;;;4.00;2.67;;;;;;;;;;5092178;28;21372;-77
2022/02/08 20:02:41;;;;;;;2.80;2.30;;;;;;;;;;5091136;28;20443;-76
2022/02/08 20:05:08;;;;;;;2.13;1.93;;;;;;;;;;5105172;28;20517;-77
2022/02/08 20:07:37;;;;;;;2.80;2.07;;;;;;;;;;5106274;28;20533;-77
2022/02/08 20:10:06;;;;;;;3.00;1.87;;;;;;;;;;5107111;28;20470;-77
2022/02/08 20:12:34;;;;;;;2.10;1.90;;;;;;;;;;5109076;28;20426;-77
2022/02/08 20:15:01;;;;;;;2.80;2.50;;;;;;;;;;5109319;28;20486;-77
2022/02/08 20:17:28;;;;;;;2.60;1.70;;;;;;;;;;5107194;28;20463;-78
2022/02/08 20:19:57;;;;;;;4.23;2.33;;;;;;;;;;5100993;28;20451;-78
2022/02/08 20:22:24;;;;;;;4.80;2.70;;;;;;;;;;5103172;28;20434;-77
2022/02/08 20:24:53;;;;;;;2.70;1.90;;;;;;;;;;5104883;28;20450;-79
2022/02/08 20:30:02;;;;;;;2.13;1.83;;;;;;;;;;5107908;28;20461;-78
2022/02/08 20:32:29;;;;;;;2.63;2.43;;;;;;;;;;5110186;28;20440;-79
2022/02/08 20:34:57;;;;;;;4.37;2.63;;;;;;;;;;5107876;28;20481;-80